createdAt,value
2018-11-12T00:01:48.391Z,1.90
2018-11-12T00:04:16.360Z,2.33
2018-11-12T00:06:44.140Z,2.17
2018-11-12T00:09:11.741Z,2.20
2018-11-12T00:11:39.354Z,2.03
2018-11-12T00:14:08.391Z,2.30
2018-11-12T00:16:35.955Z,2.10
2018-11-12T00:19:03.667Z,2.10
2018-11-12T00:21:31.324Z,2.00
2018-11-12T00:23:58.990Z,2.13
2018-11-12T00:26:26.651Z,2.00
2018-11-12T00:28:54.260Z,2.00
2018-11-12T00:31:21.853Z,2.10
2018-11-12T00:33:49.550Z,2.10
2018-11-12T00:36:17.202Z,2.30
2018-11-12T00:38:44.763Z,1.90
2018-11-12T00:41:12.374Z,2.20
2018-11-12T00:43:40.046Z,2.10
2018-11-12T00:46:07.665Z,1.83
2018-11-12T00:48:35.211Z,2.10
2018-11-12T00:51:02.771Z,2.30
2018-11-12T00:53:30.458Z,1.97
2018-11-12T00:55:58.049Z,2.20
2018-11-12T00:58:25.624Z,2.20
2018-11-12T01:00:53.206Z,2.20
2018-11-12T01:03:20.794Z,2.23
2018-11-12T01:05:48.377Z,2.13
2018-11-12T01:08:15.982Z,2.30
2018-11-12T01:10:43.550Z,2.30
2018-11-12T01:13:11.130Z,2.30
2018-11-12T01:15:38.717Z,2.20
2018-11-12T01:18:06.292Z,2.13
2018-11-12T01:20:33.900Z,2.13
2018-11-12T01:23:01.533Z,2.10
2018-11-12T01:25:29.152Z,2.47
2018-11-12T01:27:56.719Z,2.23
2018-11-12T01:30:24.278Z,2.00
2018-11-12T01:32:51.854Z,2.30
2018-11-12T01:35:19.393Z,2.50
2018-11-12T01:37:47.024Z,2.13
2018-11-12T01:40:15.208Z,2.50
2018-11-12T01:42:43.162Z,2.10
2018-11-12T01:45:14.570Z,2.07
2018-11-12T01:47:43.234Z,2.47
2018-11-12T01:50:11.682Z,2.70
2018-11-12T01:52:39.483Z,2.30
2018-11-12T01:55:08.157Z,2.60
2018-11-12T01:57:35.737Z,2.40
2018-11-12T02:00:03.721Z,2.73
2018-11-12T02:02:31.289Z,2.40
2018-11-12T02:04:58.929Z,2.20
2018-11-12T02:07:26.460Z,2.33
2018-11-12T02:09:54.027Z,3.27
2018-11-12T02:12:21.603Z,2.70
2018-11-12T02:14:49.180Z,2.40
2018-11-12T02:17:16.764Z,2.53
2018-11-12T02:19:44.487Z,2.63
2018-11-12T02:22:12.178Z,2.63
2018-11-12T02:24:39.819Z,2.60
2018-11-12T02:27:07.377Z,2.50
2018-11-12T02:29:34.982Z,2.77
2018-11-12T02:32:02.699Z,2.70
2018-11-12T02:34:30.257Z,2.73
2018-11-12T02:36:57.855Z,2.90
2018-11-12T02:39:25.414Z,3.00
2018-11-12T02:41:53.014Z,3.13
2018-11-12T02:44:20.598Z,3.00
2018-11-12T02:46:48.147Z,3.10
2018-11-12T02:49:15.818Z,2.87
2018-11-12T02:51:43.935Z,3.63
2018-11-12T02:54:11.493Z,3.00
2018-11-12T02:56:39.123Z,2.90
2018-11-12T02:59:06.705Z,2.77
2018-11-12T03:01:34.295Z,2.63
2018-11-12T03:04:01.882Z,2.80
2018-11-12T03:06:30.037Z,2.60
2018-11-12T03:08:57.664Z,2.60
2018-11-12T03:11:25.393Z,3.43
2018-11-12T03:13:53.041Z,2.47
2018-11-12T03:16:20.602Z,2.20
2018-11-12T03:18:48.284Z,2.50
2018-11-12T03:21:15.936Z,2.40
2018-11-12T03:23:43.558Z,2.10
2018-11-12T03:26:11.319Z,2.20
2018-11-12T03:28:38.901Z,1.87
2018-11-12T03:31:06.517Z,1.90
2018-11-12T03:33:34.176Z,2.10
2018-11-12T03:36:01.785Z,1.90
2018-11-12T03:38:29.342Z,1.90
2018-11-12T03:40:57.148Z,1.60
2018-11-12T03:43:24.794Z,1.90
2018-11-12T03:45:52.375Z,1.80
2018-11-12T03:48:20.036Z,1.80
2018-11-12T03:50:47.563Z,1.80
2018-11-12T03:53:15.170Z,1.77
2018-11-12T03:55:42.755Z,1.80
2018-11-12T03:58:10.367Z,1.70
2018-11-12T04:00:37.924Z,1.73
2018-11-12T04:03:05.506Z,1.60
2018-11-12T04:05:33.106Z,1.50
2018-11-12T04:08:00.769Z,1.80
2018-11-12T04:10:28.326Z,1.70
2018-11-12T04:12:56.014Z,1.50
2018-11-12T04:15:24.747Z,1.67
2018-11-12T04:17:52.424Z,1.80
2018-11-12T04:20:21.305Z,1.67
2018-11-12T04:22:54.533Z,1.60
2018-11-12T04:25:22.226Z,1.67
2018-11-12T04:27:49.925Z,1.40
2018-11-12T04:30:17.475Z,1.60
2018-11-12T04:32:45.883Z,1.60
2018-11-12T04:35:13.513Z,1.93
2018-11-12T04:37:41.199Z,1.80
2018-11-12T04:40:12.846Z,2.40
2018-11-12T04:42:40.805Z,1.60
2018-11-12T04:45:10.179Z,1.73
2018-11-12T04:47:37.847Z,1.73
2018-11-12T04:50:08.015Z,1.60
2018-11-12T04:52:35.582Z,1.80
2018-11-12T04:55:03.434Z,2.00
2018-11-12T04:57:30.993Z,1.77
2018-11-12T04:59:58.598Z,1.93
2018-11-12T05:02:28.951Z,2.20
2018-11-12T05:04:57.051Z,2.17
2018-11-12T05:07:24.657Z,2.03
2018-11-12T05:09:52.222Z,2.30
2018-11-12T05:12:19.814Z,2.50
2018-11-12T05:14:47.529Z,2.17
2018-11-12T05:17:15.204Z,2.40
2018-11-12T05:19:42.757Z,2.50
2018-11-12T05:22:10.380Z,2.23
2018-11-12T05:24:37.935Z,2.33
2018-11-12T05:27:05.554Z,2.40
2018-11-12T05:29:33.215Z,1.93
2018-11-12T05:32:00.774Z,1.90
2018-11-12T05:34:28.327Z,2.33
2018-11-12T05:36:55.957Z,1.93
2018-11-12T05:39:23.502Z,2.30
2018-11-12T05:41:51.108Z,1.83
2018-11-12T05:44:18.705Z,2.10
2018-11-12T05:46:46.326Z,2.10
2018-11-12T05:49:14.113Z,2.57
2018-11-12T05:51:41.820Z,2.20
2018-11-12T05:54:09.505Z,2.30
2018-11-12T05:56:37.069Z,2.43
2018-11-12T05:59:05.004Z,2.67
2018-11-12T06:01:32.694Z,2.67
2018-11-12T06:04:00.385Z,2.70
2018-11-12T06:06:28.148Z,2.43
2018-11-12T06:08:55.730Z,2.57
2018-11-12T06:11:23.387Z,3.17
2018-11-12T06:13:50.953Z,2.77
2018-11-12T06:16:18.659Z,2.57
2018-11-12T06:18:46.252Z,2.70
2018-11-12T06:21:13.837Z,2.77
2018-11-12T06:23:41.498Z,2.90
2018-11-12T06:26:09.089Z,2.50
2018-11-12T06:28:36.781Z,3.17
2018-11-12T06:31:04.774Z,2.80
2018-11-12T06:33:32.413Z,2.70
2018-11-12T06:35:59.979Z,2.77
2018-11-12T06:38:27.527Z,2.83
2018-11-12T06:40:55.198Z,2.80
2018-11-12T06:43:22.809Z,2.87
2018-11-12T06:45:50.496Z,2.47
2018-11-12T06:48:18.034Z,2.70
2018-11-12T06:50:45.670Z,2.60
2018-11-12T06:53:13.259Z,2.30
2018-11-12T06:55:40.838Z,2.53
2018-11-12T06:58:08.449Z,2.40
2018-11-12T07:00:36.113Z,2.70
2018-11-12T07:03:03.778Z,2.60
2018-11-12T07:05:31.923Z,2.70
2018-11-12T07:07:59.507Z,2.90
2018-11-12T07:10:28.065Z,2.60
2018-11-12T07:13:12.621Z,2.50
2018-11-12T07:16:00.227Z,2.60
2018-11-12T07:18:42.788Z,2.67
2018-11-12T07:21:10.366Z,2.20
2018-11-12T07:23:38.058Z,2.60
2018-11-12T07:26:05.659Z,2.07
2018-11-12T07:28:33.334Z,2.00
2018-11-12T07:31:01.068Z,2.20
2018-11-12T07:33:28.660Z,1.97
2018-11-12T07:35:56.363Z,2.10
2018-11-12T07:38:23.986Z,2.63
2018-11-12T07:40:51.619Z,2.70
2018-11-12T07:43:19.195Z,2.70
2018-11-12T07:45:46.797Z,2.33
2018-11-12T07:48:14.354Z,2.60
2018-11-12T07:50:41.882Z,2.87
2018-11-12T07:53:09.472Z,2.90
2018-11-12T07:55:37.028Z,2.90
2018-11-12T07:58:04.807Z,3.20
2018-11-12T08:00:33.583Z,3.30
2018-11-12T08:03:05.621Z,3.20
2018-11-12T08:05:33.395Z,2.73
2018-11-12T08:08:00.970Z,2.70
2018-11-12T08:10:28.525Z,2.87
2018-11-12T08:12:56.074Z,3.13
2018-11-12T08:15:23.791Z,2.70
2018-11-12T08:17:51.383Z,2.60
2018-11-12T08:20:20.448Z,3.07
2018-11-12T08:22:49.061Z,3.03
2018-11-12T08:25:16.905Z,2.50
2018-11-12T08:27:44.944Z,2.70
2018-11-12T08:30:14.809Z,2.97
2018-11-12T08:32:43.347Z,2.63
2018-11-12T08:35:11.565Z,2.10
2018-11-12T08:37:39.106Z,2.40
2018-11-12T08:40:09.519Z,2.17
2018-11-12T08:42:37.018Z,1.90
2018-11-12T08:45:06.012Z,2.27
2018-11-12T08:47:34.015Z,1.87
2018-11-12T08:50:01.625Z,2.07
2018-11-12T08:52:29.159Z,2.30
2018-11-12T08:54:56.866Z,2.00
2018-11-12T08:57:24.470Z,1.80
2018-11-12T08:59:52.098Z,1.97
2018-11-12T09:02:19.713Z,1.90
2018-11-12T09:04:47.307Z,2.20
2018-11-12T09:07:15.226Z,4.83
2018-11-12T09:09:42.562Z,2.30
2018-11-12T09:12:10.134Z,1.87
2018-11-12T09:14:37.878Z,1.77
2018-11-12T09:17:05.497Z,1.40
2018-11-12T09:19:33.262Z,1.47
2018-11-12T09:22:00.895Z,1.50
2018-11-12T09:24:28.686Z,1.53
2018-11-12T09:26:56.255Z,1.50
2018-11-12T09:29:23.916Z,1.60
2018-11-12T09:31:51.471Z,1.40
2018-11-12T09:34:19.298Z,1.20
2018-11-12T09:36:47.097Z,1.30
2018-11-12T09:39:14.631Z,1.30
2018-11-12T09:41:42.253Z,1.30
2018-11-12T09:44:09.851Z,1.20
2018-11-12T09:46:37.460Z,1.40
2018-11-12T09:49:05.481Z,1.50
2018-11-12T09:51:33.124Z,1.50
2018-11-12T09:54:00.778Z,1.23
2018-11-12T09:56:28.362Z,1.30
2018-11-12T09:58:56.246Z,1.20
2018-11-12T10:01:24.382Z,1.27
2018-11-12T10:03:52.396Z,1.23
2018-11-12T10:06:20.539Z,1.40
2018-11-12T10:08:48.887Z,1.20
2018-11-12T10:11:16.961Z,1.40
2018-11-12T10:13:44.980Z,1.00
2018-11-12T10:16:12.761Z,1.00
2018-11-12T10:18:37.068Z,1.40
2018-11-12T10:21:05.057Z,1.13
2018-11-12T10:23:32.643Z,1.57
2018-11-12T10:26:00.179Z,1.23
2018-11-12T10:28:27.795Z,1.10
2018-11-12T10:30:55.326Z,1.40
2018-11-12T10:33:22.962Z,1.37
2018-11-12T10:35:50.512Z,1.23
2018-11-12T10:38:18.069Z,1.27
2018-11-12T10:40:45.728Z,1.33
2018-11-12T10:43:13.274Z,1.30
2018-11-12T10:45:40.852Z,1.40
2018-11-12T10:48:08.522Z,1.40
2018-11-12T10:50:36.148Z,1.50
2018-11-12T10:53:03.962Z,1.20
2018-11-12T10:55:31.708Z,1.30
2018-11-12T10:57:59.229Z,1.50
2018-11-12T11:00:35.338Z,1.70
2018-11-12T11:03:10.876Z,1.07
2018-11-12T11:05:39.519Z,1.23
2018-11-12T11:08:07.178Z,1.30
2018-11-12T11:10:34.689Z,1.30
2018-11-12T11:13:03.171Z,1.50
2018-11-12T11:15:31.453Z,1.30
2018-11-12T11:17:58.958Z,1.50
2018-11-12T11:20:26.684Z,1.30
2018-11-12T11:22:54.286Z,1.33
2018-11-12T11:25:21.858Z,1.30
2018-11-12T11:27:49.467Z,1.50
2018-11-12T11:30:17.403Z,1.20
2018-11-12T11:32:45.074Z,1.30
2018-11-12T11:35:13.807Z,1.20
2018-11-12T11:37:41.391Z,1.47
2018-11-12T11:40:12.537Z,1.40
2018-11-12T11:42:40.432Z,1.47
2018-11-12T11:45:08.909Z,1.80
2018-11-12T11:47:36.882Z,1.40
2018-11-12T11:50:05.032Z,1.50
2018-11-12T11:52:32.598Z,1.70
2018-11-12T11:55:00.171Z,1.53
2018-11-12T11:57:27.808Z,1.50
2018-11-12T11:59:55.325Z,1.60
2018-11-12T12:02:22.948Z,1.60
2018-11-12T12:04:50.521Z,1.47
2018-11-12T12:07:18.105Z,1.50
2018-11-12T12:09:45.758Z,1.57
2018-11-12T12:12:13.318Z,1.50
2018-11-12T12:14:40.935Z,1.70
2018-11-12T12:17:08.489Z,1.60
2018-11-12T12:19:36.052Z,1.60
2018-11-12T12:22:03.663Z,1.87
2018-11-12T12:24:31.317Z,1.40
2018-11-12T12:26:58.758Z,1.50
2018-11-12T12:29:26.384Z,1.67
2018-11-12T12:31:54.003Z,1.60
2018-11-12T12:34:21.577Z,1.40
2018-11-12T12:36:49.339Z,1.43
2018-11-12T12:39:16.798Z,1.50
2018-11-12T12:41:44.390Z,1.47
2018-11-12T12:44:12.015Z,1.93
2018-11-12T12:46:39.627Z,1.67
2018-11-12T12:49:07.219Z,1.37
2018-11-12T12:51:34.868Z,1.77
2018-11-12T12:54:02.502Z,1.50
2018-11-12T12:56:30.238Z,1.40
2018-11-12T12:58:57.783Z,1.47
2018-11-12T13:01:25.426Z,1.60
2018-11-12T13:03:52.960Z,1.90
2018-11-12T13:06:20.633Z,1.73
2018-11-12T13:08:48.229Z,1.77
2018-11-12T13:11:15.805Z,1.67
2018-11-12T13:13:43.410Z,1.80
2018-11-12T13:16:10.990Z,1.70
2018-11-12T13:18:38.546Z,1.63
2018-11-12T13:21:06.172Z,2.00
2018-11-12T13:23:33.742Z,1.80
2018-11-12T13:26:01.329Z,1.60
2018-11-12T13:28:28.952Z,2.10
2018-11-12T13:30:56.544Z,1.73
2018-11-12T13:33:24.153Z,1.80
2018-11-12T13:35:51.800Z,1.80
2018-11-12T13:38:19.362Z,1.60
2018-11-12T13:40:46.942Z,1.43
2018-11-12T13:43:14.562Z,3.20
2018-11-12T13:45:42.144Z,1.97
2018-11-12T13:48:09.759Z,1.70
2018-11-12T13:50:37.418Z,1.90
2018-11-12T13:53:05.202Z,1.73
2018-11-12T13:55:32.694Z,2.00
2018-11-12T13:58:00.303Z,2.00
2018-11-12T14:00:28.867Z,2.10
2018-11-12T14:02:56.821Z,2.30
2018-11-12T14:05:25.156Z,2.07
2018-11-12T14:07:52.795Z,1.90
2018-11-12T14:10:22.586Z,1.90
2018-11-12T14:12:51.067Z,2.10
2018-11-12T14:15:19.925Z,1.67
2018-11-12T14:17:48.046Z,1.93
2018-11-12T14:20:15.697Z,1.50
2018-11-12T14:22:43.219Z,1.90
2018-11-12T14:25:12.146Z,1.97
2018-11-12T14:27:39.745Z,1.87
2018-11-12T14:30:08.993Z,1.80
2018-11-12T14:32:36.550Z,1.40
2018-11-12T14:35:05.789Z,1.73
2018-11-12T14:37:33.367Z,1.80
2018-11-12T14:40:00.912Z,1.60
2018-11-12T14:42:28.462Z,1.60
2018-11-12T14:44:56.053Z,1.90
2018-11-12T14:47:23.594Z,1.83
2018-11-12T14:49:51.164Z,1.83
2018-11-12T14:52:18.795Z,1.70
2018-11-12T14:54:46.357Z,2.03
2018-11-12T14:57:13.925Z,1.60
2018-11-12T14:59:41.524Z,1.60
2018-11-12T15:02:09.167Z,1.80
2018-11-12T15:04:36.791Z,1.60
2018-11-12T15:07:05.422Z,1.80
2018-11-12T15:09:32.986Z,1.90
2018-11-12T15:12:00.566Z,1.90
2018-11-12T15:14:28.147Z,2.03
2018-11-12T15:16:55.710Z,1.60
2018-11-12T15:19:23.307Z,1.77
2018-11-12T15:21:50.902Z,2.13
2018-11-12T15:24:18.495Z,1.80
2018-11-12T15:26:46.049Z,1.70
2018-11-12T15:29:13.709Z,1.93
2018-11-12T15:31:41.255Z,1.87
2018-11-12T15:34:08.858Z,2.00
2018-11-12T15:36:36.466Z,2.00
2018-11-12T15:39:06.694Z,1.97
2018-11-12T15:41:34.324Z,2.13
2018-11-12T15:44:01.993Z,2.10
2018-11-12T15:46:29.559Z,2.20
2018-11-12T15:48:57.177Z,1.90
2018-11-12T15:51:24.766Z,1.90
2018-11-12T15:53:52.363Z,1.93
2018-11-12T15:56:19.950Z,2.10
2018-11-12T15:58:47.510Z,2.30
2018-11-12T16:01:15.141Z,2.63
2018-11-12T16:03:42.727Z,2.43
2018-11-12T16:06:10.326Z,2.07
2018-11-12T16:08:37.927Z,1.90
2018-11-12T16:11:05.587Z,2.70
2018-11-12T16:13:33.186Z,2.53
2018-11-12T16:16:00.830Z,2.00
2018-11-12T16:18:28.398Z,2.20
2018-11-12T16:20:56.090Z,2.20
2018-11-12T16:23:23.705Z,2.00
2018-11-12T16:25:51.258Z,2.13
2018-11-12T16:28:18.853Z,2.10
2018-11-12T16:30:46.781Z,2.13
2018-11-12T16:33:14.377Z,1.93
2018-11-12T16:35:41.953Z,2.20
2018-11-12T16:38:09.541Z,2.20
2018-11-12T16:40:37.122Z,2.20
2018-11-12T16:43:04.734Z,2.00
2018-11-12T16:45:32.290Z,2.07
2018-11-12T16:47:59.874Z,3.40
2018-11-12T16:50:27.455Z,3.30
2018-11-12T16:52:55.054Z,3.53
2018-11-12T16:55:23.149Z,2.60
2018-11-12T16:57:50.847Z,2.97
2018-11-12T17:00:19.772Z,3.10
2018-11-12T17:02:47.637Z,3.10
2018-11-12T17:05:17.421Z,2.70
2018-11-12T17:07:45.017Z,2.50
2018-11-12T17:10:14.156Z,2.60
2018-11-12T17:12:42.398Z,2.90
2018-11-12T17:15:10.660Z,3.20
2018-11-12T17:17:38.378Z,3.70
2018-11-12T17:20:06.373Z,3.30
2018-11-12T17:22:34.093Z,2.80
2018-11-12T17:25:03.143Z,3.10
2018-11-12T17:27:30.748Z,2.60
2018-11-12T17:29:58.371Z,2.27
2018-11-12T17:32:25.989Z,2.90
2018-11-12T17:34:53.676Z,2.80
2018-11-12T17:37:21.258Z,2.87
2018-11-12T17:39:48.834Z,2.87
2018-11-12T17:42:16.397Z,2.83
2018-11-12T17:44:43.979Z,2.40
2018-11-12T17:47:11.612Z,2.80
2018-11-12T17:49:39.170Z,2.93
2018-11-12T17:52:06.793Z,2.70
2018-11-12T17:54:34.443Z,2.20
2018-11-12T17:57:02.069Z,3.10
2018-11-12T17:59:29.742Z,2.60
2018-11-12T18:01:57.366Z,2.37
2018-11-12T18:04:24.965Z,2.67
2018-11-12T18:06:52.657Z,2.47
2018-11-12T18:09:20.271Z,2.33
2018-11-12T18:11:47.865Z,2.50
2018-11-12T18:14:15.487Z,2.70
2018-11-12T18:16:43.095Z,2.30
2018-11-12T18:19:10.696Z,2.33
2018-11-12T18:21:38.315Z,2.30
2018-11-12T18:24:06.256Z,2.77
2018-11-12T18:26:33.863Z,2.80
2018-11-12T18:29:01.487Z,2.60
2018-11-12T18:31:29.412Z,2.63
2018-11-12T18:33:56.886Z,2.40
2018-11-12T18:36:24.458Z,2.80
2018-11-12T18:38:52.075Z,2.93
2018-11-12T18:41:19.714Z,2.93
2018-11-12T18:43:47.344Z,2.77
2018-11-12T18:46:14.916Z,3.90
2018-11-12T18:48:42.576Z,3.10
2018-11-12T18:51:10.174Z,3.23
2018-11-12T18:53:37.799Z,3.07
2018-11-12T18:56:05.671Z,3.50
2018-11-12T18:58:33.370Z,3.27
2018-11-12T19:01:01.005Z,3.30
2018-11-12T19:03:28.642Z,2.50
2018-11-12T19:05:56.287Z,3.27
2018-11-12T19:08:23.867Z,3.17
2018-11-12T19:10:51.583Z,3.13
2018-11-12T19:13:19.107Z,2.93
2018-11-12T19:15:47.967Z,3.10
2018-11-12T19:18:15.511Z,3.13
2018-11-12T19:20:43.183Z,3.20
2018-11-12T19:23:10.777Z,3.50
2018-11-12T19:25:38.393Z,3.07
2018-11-12T19:28:06.069Z,3.23
2018-11-12T19:30:33.716Z,2.90
2018-11-12T19:33:01.372Z,3.17
2018-11-12T19:35:30.263Z,3.10
2018-11-12T19:37:57.952Z,3.20
2018-11-12T19:40:26.835Z,3.10
2018-11-12T19:42:55.074Z,3.13
2018-11-12T19:45:22.758Z,2.90
2018-11-12T19:47:50.873Z,2.90
2018-11-12T19:50:19.815Z,3.03
2018-11-12T19:52:48.649Z,3.33
2018-11-12T19:55:16.370Z,3.00
2018-11-12T19:57:44.542Z,3.30
2018-11-12T20:00:14.550Z,2.93
2018-11-12T20:02:43.258Z,3.10
2018-11-12T20:05:10.914Z,3.10
2018-11-12T20:07:40.011Z,3.30
2018-11-12T20:10:09.839Z,2.93
2018-11-12T20:12:37.470Z,2.77
2018-11-12T20:15:05.575Z,2.90
2018-11-12T20:17:33.198Z,2.70
2018-11-12T20:20:00.798Z,3.03
2018-11-12T20:22:28.503Z,2.87
2018-11-12T20:24:56.511Z,3.20
2018-11-12T20:27:24.165Z,2.87
2018-11-12T20:29:51.875Z,3.00
2018-11-12T20:32:19.526Z,2.80
2018-11-12T20:34:47.174Z,2.60
2018-11-12T20:37:14.814Z,2.47
2018-11-12T20:39:42.782Z,2.80
2018-11-12T20:42:10.382Z,2.80
2018-11-12T20:44:38.205Z,3.20
2018-11-12T20:47:05.803Z,2.90
2018-11-12T20:49:33.435Z,2.80
2018-11-12T20:52:01.105Z,2.57
2018-11-12T20:54:29.097Z,2.87
2018-11-12T20:56:57.471Z,2.73
2018-11-12T20:59:25.101Z,2.70
2018-11-12T21:01:52.798Z,2.50
2018-11-12T21:04:20.452Z,2.87
2018-11-12T21:06:48.275Z,3.17
2018-11-12T21:09:15.856Z,2.77
2018-11-12T21:11:43.461Z,2.97
2018-11-12T21:14:11.112Z,3.17
2018-11-12T21:16:39.051Z,3.40
2018-11-12T21:19:07.415Z,3.30
2018-11-12T21:21:35.042Z,3.47
2018-11-12T21:24:02.630Z,3.50
2018-11-12T21:26:30.946Z,3.37
2018-11-12T21:28:58.696Z,3.40
2018-11-12T21:31:26.397Z,3.23
2018-11-12T21:33:54.245Z,3.13
2018-11-12T21:36:21.912Z,3.27
2018-11-12T21:38:49.514Z,3.00
2018-11-12T21:41:17.141Z,3.10
2018-11-12T21:43:44.879Z,3.13
2018-11-12T21:46:12.456Z,2.80
2018-11-12T21:48:40.074Z,2.47
2018-11-12T21:51:07.675Z,2.73
2018-11-12T21:53:35.304Z,2.90
2018-11-12T21:56:02.975Z,2.83
2018-11-12T21:58:30.592Z,2.97
2018-11-12T22:00:58.146Z,3.07
2018-11-12T22:03:25.770Z,2.70
2018-11-12T22:05:53.345Z,3.03
2018-11-12T22:08:21.074Z,3.07
2018-11-12T22:10:48.644Z,3.50
2018-11-12T22:13:16.219Z,3.00
2018-11-12T22:15:43.866Z,2.90
2018-11-12T22:18:11.514Z,3.00
2018-11-12T22:20:39.103Z,3.00
2018-11-12T22:23:06.770Z,3.00
2018-11-12T22:25:34.393Z,3.07
2018-11-12T22:28:02.055Z,4.10
2018-11-12T22:30:29.716Z,3.00
2018-11-12T22:32:57.330Z,2.90
2018-11-12T22:35:24.956Z,2.90
2018-11-12T22:37:52.566Z,3.00
2018-11-12T22:40:20.690Z,2.90
2018-11-12T22:42:49.148Z,2.73
2018-11-12T22:45:18.026Z,2.50
2018-11-12T22:47:46.152Z,2.80
2018-11-12T22:50:13.894Z,2.80
2018-11-12T22:52:42.190Z,2.70
2018-11-12T22:55:10.938Z,2.80
2018-11-12T22:57:38.598Z,2.97
2018-11-12T23:00:28.265Z,2.77
2018-11-12T23:02:56.482Z,2.67
2018-11-12T23:05:24.282Z,2.80
2018-11-12T23:07:52.538Z,2.77
2018-11-12T23:10:20.458Z,2.73
2018-11-12T23:12:48.090Z,2.80
2018-11-12T23:15:16.077Z,2.97
2018-11-12T23:17:43.702Z,2.87
2018-11-12T23:20:16.431Z,2.70
2018-11-12T23:22:44.826Z,2.80
2018-11-12T23:25:12.535Z,2.70
2018-11-12T23:27:40.814Z,3.00
2018-11-12T23:30:10.895Z,2.83
2018-11-12T23:32:38.527Z,2.70
2018-11-12T23:35:07.182Z,2.87
2018-11-12T23:37:34.757Z,3.33
2018-11-12T23:40:02.569Z,2.80
2018-11-12T23:42:30.214Z,2.67
2018-11-12T23:44:57.790Z,2.50
2018-11-12T23:47:25.444Z,2.30
2018-11-12T23:49:53.025Z,2.63
2018-11-12T23:52:20.610Z,2.67
2018-11-12T23:54:48.265Z,2.63
2018-11-12T23:57:15.874Z,2.57
2018-11-12T23:59:43.430Z,2.63
